Onegski — UFRK — position and weather

sailwx.info

Track history (hours):
 
Tides and Currents Weather Stations Pressure Air Temp Water Temp Dewpoint Dewpoint Depression Visibility Wind Speed Wind Dir Waves Ship Positions

Onegski

Last reported at 2018-May-30 23:00 UTC. Time now 2018-Jun-22 09:28 UTC.
Position N 43°53' E 038°27'.
Warning: this ship's position is 22 days out of date.

Length 80 m; draft 4 m.

Type: . MMSI: 273914200.

Date/timePositionNaut miles runAvg speedWind from/ knotsBaromVisibWave heightAir tempDewpointWater temp
2018-May-30 23:00N 43°53' E 038°27'4 7.0
2018-May-30 22:21N 43°55' E 038°32'2 5.7
2018-May-30 21:59N 43°55' E 038°35'2 3.9
2018-May-30 21:28N 43°56' E 038°38'3 6.3
2018-May-30 21:00N 43°57' E 038°42'1 2.9
2018-May-30 20:30N 43°57' E 038°44'0 0.3
2018-May-30 20:00N 43°57' E 038°44'4 7.7
2018-May-30 19:30N 43°58' E 038°49'4 8.0
2018-May-30 19:00N 43°60' E 038°54'4 8.3
2018-May-30 18:30N 44°01' E 038°60'3 6.9
2018-May-30 18:00N 44°03' E 039°03'2 4.7
2018-May-30 17:30N 44°06' E 039°03'0 0.6
2018-May-30 17:00N 44°06' E 039°04'0 0.0
2018-May-30 16:30N 44°06' E 039°04'0 0.0
2018-May-30 16:00N 44°06' E 039°04'0 0.0
2018-May-30 15:30N 44°06' E 039°04'0 0.0
2018-May-30 15:00N 44°06' E 039°04'0 0.0
2018-May-30 14:30N 44°06' E 039°04'0 0.0
2018-May-30 14:00N 44°06' E 039°04'0 0.0
2018-May-30 13:30N 44°06' E 039°04'0 0.0
2018-May-30 13:00N 44°06' E 039°04'0 0.0
2018-May-30 12:30N 44°06' E 039°04'0 0.0
2018-May-30 12:00N 44°06' E 039°04'0 0.0
2018-May-30 11:30N 44°06' E 039°04'0 0.0
2018-May-30 11:00N 44°06' E 039°04'0 0.0
2018-May-30 10:24N 44°06' E 039°04'0 0.0
2018-May-30 10:00N 44°06' E 039°04'0 0.0
2018-May-30 09:30N 44°06' E 039°04'0 0.0
2018-May-30 09:00N 44°06' E 039°04'0 0.0
2018-May-30 08:30N 44°06' E 039°04'0 0.0
2018-May-30 08:00N 44°06' E 039°04'0 0.0
2018-May-30 07:30N 44°06' E 039°04'0 0.4
2018-May-30 07:00N 44°06' E 039°04'0 0.0
2018-May-30 06:30N 44°06' E 039°04'0 0.0
2018-May-30 06:00N 44°06' E 039°04'0 0.0
2018-May-30 05:30N 44°06' E 039°04'  
2018-May-26 10:29N 44°06' E 039°04'0 0.0
2018-May-26 09:59N 44°06' E 039°04'  
Track history (hours):
 
Tides and Currents Weather Stations Pressure Air Temp Water Temp Dewpoint Dewpoint Depression Visibility Wind Speed Wind Dir Waves Ship Positions

Onegski

Last reported at 2018-May-30 23:00 UTC. Time now 2018-Jun-22 09:29 UTC.
Position N 43°53' E 038°27'.
Warning: this ship's position is 22 days out of date.

Length 80 m; draft 4 m.

Type: . MMSI: 273914200.

Date/timePositionNaut miles runAvg speedWind from/ knotsBaromVisibWave heightAir tempDewpointWater temp
2018-May-30 23:00N 43°53' E 038°27'4 7.0
2018-May-30 22:21N 43°55' E 038°32'2 5.7
2018-May-30 21:59N 43°55' E 038°35'2 3.9
2018-May-30 21:28N 43°56' E 038°38'3 6.3
2018-May-30 21:00N 43°57' E 038°42'1 2.9
2018-May-30 20:30N 43°57' E 038°44'0 0.3
2018-May-30 20:00N 43°57' E 038°44'4 7.7
2018-May-30 19:30N 43°58' E 038°49'4 8.0
2018-May-30 19:00N 43°60' E 038°54'4 8.3
2018-May-30 18:30N 44°01' E 038°60'3 6.9
2018-May-30 18:00N 44°03' E 039°03'2 4.7
2018-May-30 17:30N 44°06' E 039°03'0 0.6
2018-May-30 17:00N 44°06' E 039°04'0 0.0
2018-May-30 16:30N 44°06' E 039°04'0 0.0
2018-May-30 16:00N 44°06' E 039°04'0 0.0
2018-May-30 15:30N 44°06' E 039°04'0 0.0
2018-May-30 15:00N 44°06' E 039°04'0 0.0
2018-May-30 14:30N 44°06' E 039°04'0 0.0
2018-May-30 14:00N 44°06' E 039°04'0 0.0
2018-May-30 13:30N 44°06' E 039°04'0 0.0
2018-May-30 13:00N 44°06' E 039°04'0 0.0
2018-May-30 12:30N 44°06' E 039°04'0 0.0
2018-May-30 12:00N 44°06' E 039°04'0 0.0
2018-May-30 11:30N 44°06' E 039°04'0 0.0
2018-May-30 11:00N 44°06' E 039°04'0 0.0
2018-May-30 10:24N 44°06' E 039°04'0 0.0
2018-May-30 10:00N 44°06' E 039°04'0 0.0
2018-May-30 09:30N 44°06' E 039°04'0 0.0
2018-May-30 09:00N 44°06' E 039°04'0 0.0
2018-May-30 08:30N 44°06' E 039°04'0 0.0
2018-May-30 08:00N 44°06' E 039°04'0 0.0
2018-May-30 07:30N 44°06' E 039°04'0 0.4
2018-May-30 07:00N 44°06' E 039°04'0 0.0
2018-May-30 06:30N 44°06' E 039°04'0 0.0
2018-May-30 06:00N 44°06' E 039°04'0 0.0
2018-May-30 05:30N 44°06' E 039°04'  
2018-May-26 10:29N 44°06' E 039°04'0 0.0
2018-May-26 09:59N 44°06' E 039°04'  

Dump ship's entire track history